Lake Worth, FL

3:22 AM EDT on September 05, 2015 (GMT -0400)
TWO GEMS Wind & Weather | | Change Station
CLOSE
Current Station
Personal Weather Station
Location: Lake Worth, FL
Elevation: 14 ft
Nearby Weather Stations

Elev 14 ft 26.59 °N, 80.11 °W | Updated 10 seconds ago

Partly Cloudy
Partly Cloudy
76.7 °F
Feels Like 77 °F
N
0.0
Wind Variable Wind from North
Gusts 0.0 mph

Today
High -- | Low -- °F
--% Chance of Precip.
Yesterday
High -- | Low -- °F
Precip. -- in
7:01 AM 7:36 PM
Waning Gibbous, 51% visible
Pressure 29.95 in
Visibility 10.0 miles
Clouds Mostly Cloudy 25000 ft
Heat Index 77 °F
Dew Point 74 °F
Humidity 91%
Rainfall 0.00 in
Snow Depth Not available.
UV 15.0 out of 12
Pollen 3.60 out of 12
Air Quality Not available.
Flu Activity Not available.
METAR KPBI 050653Z 00000KT 10SM BKN250 25/23 A2995 RMK AO2 SLP140 T02500233
Pressure 29.95 in
Visibility 10.0 miles
Clouds Mostly Cloudy 25000 ft
Heat Index 77 °F
Dew Point 74 °F
Humidity 91%
Rainfall 0.00 in
Snow Depth Not available.
UV 15.0 out of 12
Pollen 3.60 out of 12
Air Quality Not available.
Flu Activity Not available.
METAR KPBI 050653Z 00000KT 10SM BKN250 25/23 A2995 RMK AO2 SLP140 T02500233

10-Day Weather Forecast

×

Almanac

Astronomy

Sep. 05, 2015 Rise Set
Actual Time
Civil Twilight
Nautical Twilight
Astronomical Twilight
Moon
Length of Visible Light
Length of Day
Tomorrow will be .
, % of the Moon is Illuminated

Today's Extremes

State Highs State Lows

Community

WunderPhotos

Upload Photos

1,852,430 photos uploaded!

WunderBlogs® & News

Nearby

Air Quality

  Air Quality AQ Index Pollutant
Not available.

Snow Depth

Station Depth Elevation

Earthquake Activity

City Distance Mag. Time & Date
Minimum magnitude displayed is 2.5.

Coastal Water Temperatures

Place Temperature

Stations

Nearby Weather Stations

Station Location Temp. Windchill Dew Point Humidity Wind Precip. Elev Updated Type